createdAt,value
2022-10-15T00:00:05.359Z,22.30
2022-10-15T00:02:31.963Z,23.63
2022-10-15T00:05:01.928Z,25.47
2022-10-15T00:07:29.090Z,25.13
2022-10-15T00:09:55.764Z,24.37
2022-10-15T00:12:23.895Z,24.97
2022-10-15T00:14:50.729Z,25.77
2022-10-15T00:17:42.396Z,25.10
2022-10-15T00:20:10.903Z,24.60
2022-10-15T00:22:37.899Z,26.60
2022-10-15T00:25:05.516Z,26.83
2022-10-15T00:27:42.237Z,26.77
2022-10-15T00:30:09.469Z,25.57
2022-10-15T00:32:36.139Z,26.73
2022-10-15T00:35:09.081Z,27.83
2022-10-15T00:37:35.736Z,26.23
2022-10-15T00:42:33.979Z,29.80
2022-10-15T00:45:02.908Z,26.27
2022-10-15T00:47:44.903Z,27.60
2022-10-15T00:50:23.959Z,27.80
2022-10-15T00:53:12.034Z,29.10
2022-10-15T00:55:47.049Z,29.83
2022-10-15T00:58:38.007Z,29.90
2022-10-15T01:01:07.826Z,29.30
2022-10-15T01:03:36.229Z,28.60
2022-10-15T01:06:03.669Z,30.10
2022-10-15T01:08:39.962Z,31.27
2022-10-15T01:11:19.150Z,32.10
2022-10-15T01:14:11.877Z,31.13
2022-10-15T01:16:53.397Z,30.00
2022-10-15T01:19:38.192Z,30.50
2022-10-15T01:22:11.473Z,29.57
2022-10-15T01:25:20.585Z,30.40
2022-10-15T01:28:05.585Z,30.10
2022-10-15T01:30:58.502Z,30.67
2022-10-15T01:33:43.879Z,33.73
2022-10-15T01:36:31.709Z,31.87
2022-10-15T01:39:24.589Z,32.33
2022-10-15T01:42:01.536Z,33.33
2022-10-15T01:44:32.431Z,33.13
2022-10-15T01:47:20.184Z,30.83
2022-10-15T01:49:47.863Z,32.57
2022-10-15T01:52:22.306Z,30.87
2022-10-15T01:54:50.463Z,29.80
2022-10-15T01:57:18.533Z,30.93
2022-10-15T01:59:51.307Z,32.87
2022-10-15T02:02:22.706Z,32.20
2022-10-15T02:04:49.568Z,30.13
2022-10-15T02:07:33.802Z,31.57
2022-10-15T02:10:08.262Z,31.57
2022-10-15T02:12:43.787Z,33.27
2022-10-15T02:15:19.547Z,33.50
2022-10-15T02:17:58.363Z,31.30
2022-10-15T02:20:35.209Z,33.00
2022-10-15T02:23:17.917Z,32.23
2022-10-15T02:25:47.665Z,32.77
2022-10-15T02:28:18.294Z,31.80
2022-10-15T02:30:48.486Z,33.03
2022-10-15T02:33:20.412Z,34.13
2022-10-15T02:35:48.723Z,32.00
2022-10-15T02:38:21.278Z,32.70
2022-10-15T02:40:54.440Z,31.77
2022-10-15T02:43:22.228Z,32.80
2022-10-15T02:45:50.505Z,33.40
2022-10-15T02:48:25.791Z,33.10
2022-10-15T02:50:52.517Z,33.70
2022-10-15T02:53:19.184Z,32.70
2022-10-15T02:55:48.531Z,31.43
2022-10-15T02:58:15.340Z,32.80
2022-10-15T03:00:44.552Z,31.93
2022-10-15T03:03:12.630Z,32.93
2022-10-15T03:05:46.557Z,33.10
2022-10-15T03:08:18.763Z,33.40
2022-10-15T03:10:46.675Z,32.87
2022-10-15T03:13:13.673Z,31.60
2022-10-15T03:15:47.292Z,32.70
2022-10-15T03:18:15.411Z,31.93
2022-10-15T03:20:46.774Z,31.20
2022-10-15T03:23:16.485Z,34.33
2022-10-15T03:25:44.609Z,31.93
2022-10-15T03:28:22.225Z,34.00
2022-10-15T03:30:49.617Z,31.83
2022-10-15T03:33:19.000Z,33.60
2022-10-15T03:35:47.936Z,32.50
2022-10-15T03:38:39.535Z,35.20
2022-10-15T03:41:10.506Z,34.30
2022-10-15T03:43:48.229Z,35.40
2022-10-15T03:46:16.496Z,37.07
2022-10-15T03:48:49.628Z,35.80
2022-10-15T03:51:20.475Z,36.00
2022-10-15T03:54:30.200Z,34.00
2022-10-15T03:56:57.854Z,33.63
2022-10-15T03:59:32.076Z,34.50
2022-10-15T04:02:01.493Z,34.57
2022-10-15T04:04:29.053Z,35.37
2022-10-15T04:06:56.293Z,35.23
2022-10-15T04:09:23.667Z,35.80
2022-10-15T04:11:50.376Z,35.23
2022-10-15T04:14:19.443Z,34.60
2022-10-15T04:16:46.126Z,34.47
2022-10-15T04:19:18.063Z,37.50
2022-10-15T04:21:58.167Z,36.37
2022-10-15T04:24:32.474Z,33.73
2022-10-15T04:27:01.574Z,34.53
2022-10-15T04:29:30.959Z,35.60
2022-10-15T04:32:22.583Z,36.90
2022-10-15T04:35:00.801Z,36.23
2022-10-15T04:37:46.626Z,35.90
2022-10-15T04:40:14.836Z,35.73
2022-10-15T04:42:42.134Z,36.77
2022-10-15T04:45:10.465Z,35.17
2022-10-15T04:47:39.995Z,37.07
2022-10-15T04:50:14.946Z,37.17
2022-10-15T04:53:01.879Z,37.33
2022-10-15T04:55:32.655Z,36.87
2022-10-15T04:58:01.052Z,36.50
2022-10-15T05:00:29.801Z,37.30
2022-10-15T05:03:15.143Z,37.90
2022-10-15T05:05:53.673Z,39.47
2022-10-15T05:08:20.766Z,36.57
2022-10-15T05:11:18.666Z,38.87
2022-10-15T05:13:45.624Z,36.67
2022-10-15T05:16:17.132Z,37.60
2022-10-15T05:18:48.903Z,36.83
2022-10-15T05:21:16.382Z,40.37
2022-10-15T05:23:47.978Z,36.70
2022-10-15T05:26:34.660Z,38.60
2022-10-15T05:29:03.797Z,37.57
2022-10-15T05:31:35.920Z,39.10
2022-10-15T05:34:13.160Z,39.47
2022-10-15T05:37:00.002Z,37.00
2022-10-15T05:39:44.221Z,38.43
2022-10-15T05:42:41.133Z,38.40
2022-10-15T05:45:08.492Z,36.53
2022-10-15T05:47:35.185Z,35.37
2022-10-15T05:50:14.790Z,37.77
2022-10-15T05:52:45.278Z,38.00
2022-10-15T05:55:32.355Z,35.97
2022-10-15T05:58:03.262Z,36.93
2022-10-15T06:00:29.934Z,38.00
2022-10-15T06:02:56.527Z,37.50
2022-10-15T06:05:24.442Z,38.33
2022-10-15T06:07:58.349Z,40.27
2022-10-15T06:10:25.545Z,40.07
2022-10-15T06:12:52.453Z,40.37
2022-10-15T06:15:28.394Z,38.87
2022-10-15T06:17:54.959Z,40.80
2022-10-15T06:20:21.579Z,37.73
2022-10-15T06:23:02.318Z,37.13
2022-10-15T06:25:32.614Z,38.80
2022-10-15T06:28:03.447Z,40.90
2022-10-15T06:30:41.680Z,39.23
2022-10-15T06:33:16.128Z,39.73
2022-10-15T06:35:46.724Z,37.57
2022-10-15T06:38:13.414Z,38.77
2022-10-15T06:40:48.754Z,40.47
2022-10-15T06:49:19.916Z,37.27
2022-10-15T06:59:10.670Z,37.60
2022-10-15T07:01:39.928Z,34.57
2022-10-15T07:04:08.864Z,35.87
2022-10-15T07:06:35.775Z,36.57
2022-10-15T07:09:03.159Z,34.57
2022-10-15T07:11:29.831Z,35.17
2022-10-15T07:13:59.666Z,35.27
2022-10-15T07:16:26.606Z,36.33
2022-10-15T07:19:05.136Z,34.27
2022-10-15T07:21:32.112Z,34.00
2022-10-15T07:26:42.345Z,36.00
2022-10-15T07:29:16.670Z,31.80
2022-10-15T07:34:13.108Z,35.47
2022-10-15T07:37:06.215Z,33.10
2022-10-15T07:39:39.118Z,33.47
2022-10-15T07:42:16.559Z,33.80
2022-10-15T07:44:43.235Z,34.00
2022-10-15T07:47:12.261Z,32.33
2022-10-15T07:49:51.585Z,32.13
2022-10-15T07:52:31.284Z,32.50
2022-10-15T07:54:58.167Z,34.70
2022-10-15T07:57:24.885Z,34.50
2022-10-15T08:00:15.440Z,33.13
2022-10-15T08:02:45.595Z,32.40
2022-10-15T08:05:14.785Z,33.90
2022-10-15T08:07:50.748Z,34.77
2022-10-15T08:10:19.655Z,33.57
2022-10-15T08:12:46.306Z,32.27
2022-10-15T08:15:13.045Z,30.43
2022-10-15T08:17:42.916Z,30.67
2022-10-15T08:20:10.476Z,31.03
2022-10-15T08:22:37.349Z,31.37
2022-10-15T08:25:04.501Z,30.27
2022-10-15T08:27:31.375Z,30.07
2022-10-15T08:30:04.585Z,29.50
2022-10-15T08:32:31.254Z,30.00
2022-10-15T08:34:57.883Z,30.80
2022-10-15T08:37:24.813Z,30.37
2022-10-15T08:39:51.515Z,29.60
2022-10-15T08:42:30.692Z,30.30
2022-10-15T08:45:08.897Z,28.43
2022-10-15T08:48:18.428Z,29.83
2022-10-15T08:51:00.107Z,29.87
2022-10-15T08:53:28.358Z,30.40
2022-10-15T08:56:02.769Z,29.03
2022-10-15T08:58:51.893Z,30.37
2022-10-15T09:01:38.624Z,30.47
2022-10-15T09:04:17.358Z,29.43
2022-10-15T09:06:44.655Z,29.17
2022-10-15T09:09:27.539Z,31.67
2022-10-15T09:12:25.959Z,32.00
2022-10-15T09:14:57.013Z,30.93
2022-10-15T09:17:25.969Z,30.67
2022-10-15T09:19:57.517Z,29.10
2022-10-15T09:22:30.193Z,29.10
2022-10-15T09:24:57.089Z,28.63
2022-10-15T09:27:35.008Z,28.20
2022-10-15T09:30:13.536Z,26.83
2022-10-15T09:32:51.970Z,26.97
2022-10-15T09:35:25.654Z,27.63
2022-10-15T09:38:01.118Z,26.53
2022-10-15T09:40:48.883Z,25.00
2022-10-15T09:43:20.790Z,25.40
2022-10-15T09:45:47.420Z,25.53
2022-10-15T09:48:18.813Z,25.73
2022-10-15T09:50:58.664Z,25.40
2022-10-15T09:53:28.364Z,24.40
2022-10-15T09:56:08.043Z,23.40
2022-10-15T09:58:40.473Z,22.47
2022-10-15T10:01:08.278Z,23.37
2022-10-15T10:03:38.995Z,23.37
2022-10-15T10:06:11.250Z,22.90
2022-10-15T10:08:51.949Z,20.83
2022-10-15T10:11:20.421Z,21.50
2022-10-15T10:13:57.110Z,20.87
2022-10-15T10:16:24.028Z,19.43
2022-10-15T10:19:05.876Z,18.50
2022-10-15T10:21:34.769Z,17.97
2022-10-15T10:24:30.714Z,17.53
2022-10-15T10:26:58.684Z,16.37
2022-10-15T10:29:33.983Z,15.23
2022-10-15T10:32:11.131Z,17.30
2022-10-15T10:34:37.804Z,16.70
2022-10-15T10:37:06.621Z,15.97
2022-10-15T10:39:34.910Z,15.87
2022-10-15T10:42:01.541Z,15.03
2022-10-15T10:44:28.084Z,15.50
2022-10-15T10:47:23.194Z,15.50
2022-10-15T10:50:08.573Z,15.60
2022-10-15T10:52:37.377Z,15.77
2022-10-15T10:55:20.074Z,14.53
2022-10-15T10:57:58.353Z,14.10
2022-10-15T11:00:44.234Z,13.13
2022-10-15T11:03:23.067Z,13.77
2022-10-15T11:06:12.198Z,13.37
2022-10-15T11:08:44.399Z,13.50
2022-10-15T11:11:32.942Z,12.23
2022-10-15T11:14:27.285Z,12.60
2022-10-15T11:17:05.427Z,12.70
2022-10-15T11:20:05.659Z,12.80
2022-10-15T11:22:55.584Z,13.67
2022-10-15T11:25:38.779Z,13.70
2022-10-15T11:28:20.196Z,12.80
2022-10-15T11:30:59.754Z,12.73
2022-10-15T11:33:47.867Z,12.87
2022-10-15T11:36:54.845Z,13.67
2022-10-15T11:39:49.147Z,12.77
2022-10-15T11:42:29.147Z,13.10
2022-10-15T11:45:33.429Z,13.20
2022-10-15T11:48:27.163Z,12.20
2022-10-15T11:52:04.076Z,12.73
2022-10-15T11:54:43.496Z,11.77
2022-10-15T11:57:21.599Z,11.80
2022-10-15T12:00:11.847Z,11.40
2022-10-15T12:02:42.692Z,12.10
2022-10-15T12:05:30.015Z,11.63
2022-10-15T12:08:01.267Z,11.30
2022-10-15T12:10:37.085Z,10.93
2022-10-15T12:13:23.092Z,10.40
2022-10-15T12:15:52.602Z,10.27
2022-10-15T12:18:48.603Z,10.00
2022-10-15T12:21:36.634Z,9.47
2022-10-15T12:24:07.082Z,8.70
2022-10-15T12:26:34.736Z,8.40
2022-10-15T12:29:16.678Z,7.60
2022-10-15T12:31:46.163Z,8.30
2022-10-15T12:34:28.553Z,7.13
2022-10-15T12:37:17.500Z,7.60
2022-10-15T12:39:52.442Z,7.33
2022-10-15T12:42:27.323Z,6.90
2022-10-15T12:44:57.518Z,6.40
2022-10-15T12:47:56.421Z,6.77
2022-10-15T12:50:25.855Z,6.57
2022-10-15T12:52:54.298Z,6.40
2022-10-15T12:55:28.405Z,6.67
2022-10-15T12:58:14.648Z,5.37
2022-10-15T13:00:43.971Z,5.43
2022-10-15T13:03:13.553Z,5.93
2022-10-15T13:05:40.220Z,4.50
2022-10-15T13:08:13.909Z,4.50
2022-10-15T13:10:54.917Z,4.40
2022-10-15T13:13:24.999Z,3.83
2022-10-15T13:16:02.376Z,3.57
2022-10-15T13:18:30.858Z,3.27
2022-10-15T13:20:57.916Z,3.40
2022-10-15T13:23:33.252Z,3.07
2022-10-15T13:26:12.168Z,3.23
2022-10-15T13:28:42.123Z,3.17
2022-10-15T13:31:24.737Z,2.73
2022-10-15T13:33:56.501Z,2.40
2022-10-15T13:36:24.933Z,2.50
2022-10-15T13:38:56.886Z,2.40
2022-10-15T13:41:43.867Z,2.57
2022-10-15T13:44:24.166Z,2.33
2022-10-15T13:46:51.308Z,2.40
2022-10-15T13:49:18.536Z,2.00
2022-10-15T13:51:47.672Z,2.03
2022-10-15T13:54:24.281Z,2.00
2022-10-15T13:56:59.475Z,1.80
2022-10-15T13:59:28.778Z,1.97
2022-10-15T14:02:04.505Z,1.90
2022-10-15T14:04:33.016Z,1.90
2022-10-15T14:07:05.481Z,1.73
2022-10-15T14:09:34.190Z,1.60
2022-10-15T14:12:03.041Z,1.70
2022-10-15T14:14:41.814Z,1.90
2022-10-15T14:17:20.785Z,1.70
2022-10-15T14:20:14.403Z,1.70
2022-10-15T14:22:39.897Z,1.90
2022-10-15T14:25:10.635Z,1.87
2022-10-15T14:27:37.238Z,2.20
2022-10-15T14:30:22.406Z,1.90
2022-10-15T14:32:52.761Z,1.80
2022-10-15T14:35:36.412Z,1.80
2022-10-15T14:38:25.134Z,1.60
2022-10-15T14:41:25.992Z,2.00
2022-10-15T14:44:01.886Z,2.20
2022-10-15T14:46:36.961Z,1.77
2022-10-15T14:49:03.698Z,1.80
2022-10-15T14:51:30.411Z,2.30
2022-10-15T14:53:57.037Z,2.27
2022-10-15T14:56:26.097Z,2.10
2022-10-15T14:58:56.613Z,2.30
2022-10-15T15:01:23.731Z,2.33
2022-10-15T15:03:53.436Z,1.97
2022-10-15T15:06:23.214Z,2.00
2022-10-15T15:08:50.062Z,3.20
2022-10-15T15:11:22.686Z,5.37
2022-10-15T15:13:55.542Z,3.60
2022-10-15T15:16:25.102Z,4.40
2022-10-15T15:18:53.015Z,4.97
2022-10-15T15:21:24.841Z,3.00
2022-10-15T15:23:51.621Z,4.30
2022-10-15T15:26:18.406Z,4.47
2022-10-15T15:28:45.123Z,3.60
2022-10-15T15:31:17.285Z,3.33
2022-10-15T15:33:43.999Z,5.50
2022-10-15T15:36:17.588Z,3.93
2022-10-15T15:38:47.442Z,3.80
2022-10-15T15:41:19.000Z,2.70
2022-10-15T15:43:46.063Z,3.60
2022-10-15T15:46:13.142Z,3.67
2022-10-15T15:48:39.808Z,2.60
2022-10-15T15:51:20.330Z,3.17
2022-10-15T15:53:47.057Z,3.00
2022-10-15T15:56:16.744Z,2.50
2022-10-15T15:58:43.434Z,2.97
2022-10-15T16:01:10.089Z,3.47
2022-10-15T16:03:36.746Z,6.90
2022-10-15T16:06:07.315Z,5.10
2022-10-15T16:08:35.423Z,4.10
2022-10-15T16:11:02.975Z,3.27
2022-10-15T16:13:30.024Z,3.53
2022-10-15T16:16:07.246Z,3.23
2022-10-15T16:18:33.952Z,2.90
2022-10-15T16:21:00.590Z,3.47
2022-10-15T16:23:27.188Z,2.90
2022-10-15T16:25:54.953Z,2.80
2022-10-15T16:28:24.711Z,2.67
2022-10-15T16:30:51.430Z,2.37
2022-10-15T16:33:18.099Z,3.00
2022-10-15T16:35:44.871Z,2.80
2022-10-15T16:38:11.514Z,4.33
2022-10-15T16:41:03.515Z,2.80
2022-10-15T16:43:30.155Z,5.20
2022-10-15T16:45:57.835Z,18.10
2022-10-15T16:48:26.426Z,106.53
2022-10-15T16:51:11.211Z,26.83
2022-10-15T16:53:43.431Z,9.73
2022-10-15T16:56:24.281Z,3.80
2022-10-15T16:58:51.059Z,3.23
2022-10-15T17:01:21.121Z,7.20
2022-10-15T17:03:52.333Z,11.00
2022-10-15T17:06:24.560Z,3.13
2022-10-15T17:08:54.782Z,3.33
2022-10-15T17:11:41.076Z,3.07
2022-10-15T17:14:15.680Z,3.90
2022-10-15T17:16:43.614Z,3.30
2022-10-15T17:19:11.935Z,3.20
2022-10-15T17:21:46.908Z,4.00
2022-10-15T17:24:15.644Z,6.50
2022-10-15T17:26:43.379Z,5.30
2022-10-15T17:29:20.641Z,4.97
2022-10-15T17:31:58.736Z,4.23
2022-10-15T17:34:27.864Z,4.63
2022-10-15T17:36:56.196Z,4.70
2022-10-15T17:39:26.958Z,3.80
2022-10-15T17:41:53.805Z,3.83
2022-10-15T17:44:23.525Z,3.50
2022-10-15T17:47:04.095Z,2.70
2022-10-15T17:49:30.778Z,4.00
2022-10-15T17:51:59.671Z,3.00
2022-10-15T17:54:29.008Z,3.60
2022-10-15T17:56:55.732Z,2.87
2022-10-15T17:59:22.365Z,3.43
2022-10-15T18:02:04.464Z,4.10
2022-10-15T18:04:44.554Z,3.60
2022-10-15T18:07:11.655Z,3.47
2022-10-15T18:09:41.429Z,3.10
2022-10-15T18:12:22.729Z,4.10
2022-10-15T18:15:03.671Z,3.13
2022-10-15T18:17:53.185Z,3.80
2022-10-15T18:20:18.025Z,3.73
2022-10-15T18:22:58.487Z,3.87
2022-10-15T18:25:25.929Z,4.10
2022-10-15T18:28:01.731Z,3.20
2022-10-15T18:30:30.026Z,3.27
2022-10-15T18:32:58.258Z,3.40
2022-10-15T18:35:35.422Z,3.33
2022-10-15T18:38:28.655Z,5.47
2022-10-15T18:41:21.521Z,4.80
2022-10-15T18:44:00.086Z,3.60
2022-10-15T18:46:34.024Z,6.10
2022-10-15T18:49:08.525Z,4.40
2022-10-15T18:51:37.805Z,4.10
2022-10-15T18:54:04.713Z,4.00
2022-10-15T18:56:38.884Z,4.40
2022-10-15T18:59:05.563Z,4.10
2022-10-15T19:01:45.469Z,4.17
2022-10-15T19:04:19.836Z,4.20
2022-10-15T19:06:57.747Z,5.00
2022-10-15T19:09:26.309Z,5.00
2022-10-15T19:11:59.034Z,4.80
2022-10-15T19:14:31.833Z,5.03
2022-10-15T19:16:58.610Z,5.10
2022-10-15T19:19:31.719Z,4.97
2022-10-15T19:21:59.160Z,5.50
2022-10-15T19:24:30.661Z,5.30
2022-10-15T19:26:57.606Z,5.83
2022-10-15T19:29:35.205Z,5.83
2022-10-15T19:32:28.338Z,5.90
2022-10-15T19:34:58.526Z,5.53
2022-10-15T19:37:27.565Z,6.00
2022-10-15T19:40:03.799Z,5.47
2022-10-15T19:42:30.523Z,5.40
2022-10-15T19:44:59.672Z,5.00
2022-10-15T19:47:30.024Z,5.40
2022-10-15T19:50:01.704Z,4.90
2022-10-15T19:52:28.605Z,4.77
2022-10-15T19:54:55.276Z,4.47
2022-10-15T19:57:42.353Z,4.60
2022-10-15T20:00:16.875Z,4.43
2022-10-15T20:02:43.598Z,3.50
2022-10-15T20:05:10.275Z,3.90
2022-10-15T20:07:44.202Z,3.20
2022-10-15T20:10:12.133Z,3.60
2022-10-15T20:12:39.028Z,3.37
2022-10-15T20:15:06.467Z,2.63
2022-10-15T20:17:35.498Z,2.70
2022-10-15T20:20:05.738Z,2.20
2022-10-15T20:22:32.346Z,2.70
2022-10-15T20:24:58.997Z,2.53
2022-10-15T20:27:32.843Z,2.37
2022-10-15T20:29:59.588Z,2.00
2022-10-15T20:32:41.515Z,2.20
2022-10-15T20:35:09.029Z,2.00
2022-10-15T20:37:35.613Z,2.23
2022-10-15T20:40:02.220Z,2.30
2022-10-15T20:42:39.145Z,2.20
2022-10-15T20:45:07.907Z,2.00
2022-10-15T20:47:35.659Z,1.97
2022-10-15T20:50:13.833Z,2.30
2022-10-15T20:52:43.518Z,2.50
2022-10-15T20:55:13.191Z,2.20
2022-10-15T20:57:39.996Z,2.40
2022-10-15T21:00:08.225Z,2.30
2022-10-15T21:02:35.597Z,2.27
2022-10-15T21:05:07.058Z,2.10
2022-10-15T21:07:34.123Z,2.30
2022-10-15T21:10:01.021Z,2.40
2022-10-15T21:12:27.950Z,4.40
2022-10-15T21:14:54.836Z,3.63
2022-10-15T21:17:31.531Z,4.20
2022-10-15T21:19:58.184Z,2.50
2022-10-15T21:22:27.557Z,2.40
2022-10-15T21:24:54.183Z,2.20
2022-10-15T21:27:21.344Z,2.27
2022-10-15T21:29:55.000Z,2.20
2022-10-15T21:32:35.241Z,2.20
2022-10-15T21:35:04.873Z,2.37
2022-10-15T21:37:36.063Z,2.27
2022-10-15T21:40:04.056Z,2.23
2022-10-15T21:42:30.844Z,2.07
2022-10-15T21:44:58.281Z,2.20
2022-10-15T21:47:33.299Z,2.30
2022-10-15T21:49:59.903Z,2.13
2022-10-15T21:52:26.467Z,2.23
2022-10-15T21:55:02.816Z,1.90
2022-10-15T21:57:29.411Z,2.33
2022-10-15T21:59:59.839Z,2.10
2022-10-15T22:02:33.670Z,2.10
2022-10-15T22:05:00.417Z,1.97
2022-10-15T22:07:27.394Z,2.13
2022-10-15T22:10:06.046Z,2.10
2022-10-15T22:12:32.686Z,2.20
2022-10-15T22:14:59.465Z,2.03
2022-10-15T22:17:32.656Z,1.90
2022-10-15T22:19:59.219Z,1.87
2022-10-15T22:22:26.218Z,1.87
2022-10-15T22:25:05.546Z,2.13
2022-10-15T22:27:33.260Z,1.70
2022-10-15T22:29:59.925Z,1.90
2022-10-15T22:32:37.966Z,2.50
2022-10-15T22:35:04.801Z,1.77
2022-10-15T22:37:31.527Z,2.00
2022-10-15T22:39:59.187Z,2.00
2022-10-15T22:42:28.383Z,2.23
2022-10-15T22:44:55.158Z,2.10
2022-10-15T22:47:27.839Z,2.27
2022-10-15T22:49:54.654Z,2.07
2022-10-15T22:52:24.849Z,2.13
2022-10-15T22:54:58.986Z,2.07
2022-10-15T22:57:25.723Z,2.17
2022-10-15T22:59:58.578Z,2.00
2022-10-15T23:02:28.568Z,2.20
2022-10-15T23:04:55.364Z,2.40
2022-10-15T23:07:24.712Z,2.03
2022-10-15T23:09:51.424Z,2.23
2022-10-15T23:12:18.031Z,2.00
2022-10-15T23:14:44.729Z,2.00
2022-10-15T23:17:11.403Z,2.20
2022-10-15T23:19:42.616Z,2.27
2022-10-15T23:22:10.891Z,2.50
2022-10-15T23:24:37.552Z,2.40
2022-10-15T23:27:04.141Z,2.30
2022-10-15T23:29:30.804Z,2.50
2022-10-15T23:31:57.520Z,2.50
2022-10-15T23:34:28.461Z,2.30
2022-10-15T23:36:55.050Z,2.07
2022-10-15T23:39:25.019Z,2.13
2022-10-15T23:41:51.776Z,2.10
2022-10-15T23:44:21.539Z,2.10
2022-10-15T23:46:48.235Z,2.40
2022-10-15T23:49:15.037Z,2.50
2022-10-15T23:51:41.734Z,2.53
2022-10-15T23:54:17.828Z,3.00
2022-10-15T23:56:45.810Z,2.83
2022-10-15T23:59:12.485Z,2.80
